METAR rapporter

 

EKCH - Copenhagen/Kastr, Denmark
Afstand til vejrstation: SØ 11km
Opdateret: 09/03/2021 10:50
Klart
Klart
 Vind retning SSV
Vind: SSV 15 km/h
Temperatur: 3°C
Kuldeindeks: -1°C
Dugpunkt: -4°C
Fugtighed: 60%
Barometer: 1021 hPa
Skyer: Klart
Sigtbarhed: 10 km
2021/03/09 09:50 EKCH 090950Z AUTO 20008KT 9999 NCD 03/M04 Q1021 NOSIG
EKRK - Copenhagen/Roski, Denmark
Afstand til vejrstation: VSV 29km
Opdateret: 09/03/2021 10:50
Klart
Klart
 Vind retning S
Vind: S 9 km/h
Temperatur: 3°C
Kuldeindeks: 0°C
Dugpunkt: -5°C
Fugtighed: 56%
Barometer: 1020 hPa
Skyer: Klart
Sigtbarhed: 10 km
2021/03/09 09:50 EKRK 090950Z AUTO 18005KT 9999 NCD 03/M05 Q1020